createdAt,value
2023-05-19T00:03:52.613Z,101675.00
2023-05-19T00:08:57.670Z,101683.20
2023-05-19T00:13:59.457Z,101680.80
2023-05-19T00:19:00.211Z,101680.60
2023-05-19T00:24:00.681Z,101681.40
2023-05-19T00:28:59.700Z,101684.80
2023-05-19T00:33:58.789Z,101684.00
2023-05-19T00:38:57.846Z,101685.40
2023-05-19T00:43:57.358Z,101683.80
2023-05-19T00:48:56.684Z,101681.60
2023-05-19T00:53:56.445Z,101681.20
2023-05-19T00:58:56.793Z,101671.00
2023-05-19T01:03:59.107Z,101669.80
2023-05-19T01:08:59.284Z,101668.20
2023-05-19T01:13:58.973Z,101664.60
2023-05-19T01:19:12.426Z,101662.80
2023-05-19T01:24:35.622Z,101662.00
2023-05-19T01:29:56.201Z,101662.20
2023-05-19T01:34:57.257Z,101658.20
2023-05-19T01:39:57.286Z,101659.20
2023-05-19T01:44:57.710Z,101654.00
2023-05-19T01:49:58.806Z,101651.00
2023-05-19T01:54:59.133Z,101651.00
2023-05-19T02:00:17.792Z,101644.40
2023-05-19T02:05:32.857Z,101644.60
2023-05-19T02:10:38.044Z,101648.40
2023-05-19T02:15:46.497Z,101640.40
2023-05-19T02:20:46.509Z,101647.00
2023-05-19T02:25:46.344Z,101641.00
2023-05-19T02:30:45.801Z,101635.60
2023-05-19T02:35:45.580Z,101636.60
2023-05-19T02:40:47.074Z,101632.40
2023-05-19T02:45:46.506Z,101628.40
2023-05-19T02:50:45.972Z,101630.00
2023-05-19T02:55:45.617Z,101628.80
2023-05-19T03:00:45.603Z,101633.00
2023-05-19T03:05:45.101Z,101638.00
2023-05-19T03:10:44.562Z,101637.40
2023-05-19T03:15:45.139Z,101638.80
2023-05-19T03:20:44.948Z,101641.40
2023-05-19T03:25:44.308Z,101646.40
2023-05-19T03:30:44.165Z,101649.40
2023-05-19T03:35:46.707Z,101650.40
2023-05-19T03:40:46.519Z,101651.40
2023-05-19T03:45:45.320Z,101651.40
2023-05-19T03:51:10.924Z,101653.40
2023-05-19T03:56:14.160Z,101656.60
2023-05-19T04:01:14.477Z,101650.60
2023-05-19T04:06:14.727Z,101649.00
2023-05-19T04:11:15.158Z,101649.20
2023-05-19T04:16:14.753Z,101648.20
2023-05-19T04:21:14.205Z,101646.20
2023-05-19T04:26:15.093Z,101650.40
2023-05-19T04:31:14.597Z,101639.80
2023-05-19T04:36:17.751Z,101643.20
2023-05-19T04:41:17.683Z,101642.00
2023-05-19T04:46:17.182Z,101648.80
2023-05-19T04:51:18.253Z,101652.80
2023-05-19T04:56:17.511Z,101655.60
2023-05-19T05:01:17.342Z,101654.00
2023-05-19T05:06:16.860Z,101660.20
2023-05-19T05:11:18.519Z,101654.40
2023-05-19T05:16:21.732Z,101655.00
2023-05-19T05:21:23.857Z,101656.20
2023-05-19T05:26:24.439Z,101654.80
2023-05-19T05:31:25.040Z,101653.60
2023-05-19T05:36:25.041Z,101653.80
2023-05-19T05:41:24.687Z,101652.80
2023-05-19T05:46:27.664Z,101654.60
2023-05-19T05:51:30.384Z,101652.80
2023-05-19T05:56:33.981Z,101657.60
2023-05-19T06:01:35.846Z,101653.20
2023-05-19T06:06:36.148Z,101657.20
2023-05-19T06:11:35.419Z,101654.80
2023-05-19T06:16:38.440Z,101662.80
2023-05-19T06:21:38.260Z,101665.60
2023-05-19T06:26:37.276Z,101662.40
2023-05-19T06:31:36.907Z,101666.00
2023-05-19T06:36:42.827Z,101667.20
2023-05-19T06:41:42.271Z,101671.00
2023-05-19T06:46:42.206Z,101669.00
2023-05-19T06:51:41.607Z,101668.40
2023-05-19T06:56:40.939Z,101670.20
2023-05-19T07:01:40.478Z,101662.80
2023-05-19T07:06:40.853Z,101652.40
2023-05-19T07:11:41.094Z,101660.20
2023-05-19T07:16:41.100Z,101662.80
2023-05-19T07:21:40.659Z,101657.00
2023-05-19T07:26:40.218Z,101654.00
2023-05-19T07:31:40.157Z,101654.60
2023-05-19T07:36:39.122Z,101644.00
2023-05-19T07:41:38.332Z,101658.00
2023-05-19T07:46:38.286Z,101658.60
2023-05-19T07:51:37.630Z,101656.40
2023-05-19T07:56:36.517Z,101657.80
2023-05-19T08:01:36.218Z,101657.80
2023-05-19T08:06:35.570Z,101658.60
2023-05-19T08:11:35.285Z,101657.00
2023-05-19T08:16:34.838Z,101654.20
2023-05-19T08:21:35.756Z,101650.60
2023-05-19T08:26:37.072Z,101657.40
2023-05-19T08:31:37.460Z,101651.40
2023-05-19T08:36:36.993Z,101653.00
2023-05-19T08:41:36.161Z,101665.00
2023-05-19T08:46:36.673Z,101658.80
2023-05-19T08:51:48.727Z,101655.00
2023-05-19T08:56:50.850Z,101652.80
2023-05-19T09:01:51.522Z,101651.00
2023-05-19T09:06:51.813Z,101654.80
2023-05-19T09:11:51.925Z,101650.00
2023-05-19T09:16:53.373Z,101651.00
2023-05-19T09:22:04.815Z,101649.00
2023-05-19T09:27:04.137Z,101651.00
2023-05-19T09:32:05.309Z,101644.40
2023-05-19T09:37:05.313Z,101652.60
2023-05-19T09:42:09.434Z,101649.40
2023-05-19T09:47:11.401Z,101653.00
2023-05-19T09:52:16.478Z,101644.60
2023-05-19T09:57:16.270Z,101648.00
2023-05-19T10:02:21.834Z,101651.80
2023-05-19T10:07:22.359Z,101649.80
2023-05-19T10:12:23.838Z,101647.00
2023-05-19T10:17:23.520Z,101653.20
2023-05-19T10:22:24.019Z,101651.20
2023-05-19T10:27:24.951Z,101645.40
2023-05-19T10:32:30.113Z,101645.40
2023-05-19T10:37:43.325Z,101637.60
2023-05-19T10:42:55.117Z,101631.00
2023-05-19T10:47:55.984Z,101631.20
2023-05-19T10:53:00.396Z,101630.00
2023-05-19T10:58:00.990Z,101634.20
2023-05-19T11:03:19.042Z,101631.80
2023-05-19T11:08:19.060Z,101630.40
2023-05-19T11:13:31.424Z,101638.00
2023-05-19T11:18:35.073Z,101637.60
2023-05-19T11:23:44.089Z,101631.60
2023-05-19T11:28:46.799Z,101636.20
2023-05-19T11:33:47.444Z,101632.00
2023-05-19T11:38:50.911Z,101630.60
2023-05-19T11:43:57.568Z,101636.00
2023-05-19T11:48:59.383Z,101634.60
2023-05-19T11:53:58.612Z,101632.60
2023-05-19T11:58:59.380Z,101634.20
2023-05-19T12:03:58.516Z,101632.00
2023-05-19T12:08:59.291Z,101635.60
2023-05-19T12:14:02.527Z,101643.20
2023-05-19T12:19:01.829Z,101641.40
2023-05-19T12:24:01.761Z,101639.20
2023-05-19T12:29:01.787Z,101642.60
2023-05-19T12:34:01.864Z,101634.00
2023-05-19T12:39:01.135Z,101636.60
2023-05-19T12:44:01.324Z,101629.60
2023-05-19T12:49:03.941Z,101627.00
2023-05-19T12:54:05.990Z,101633.60
2023-05-19T12:59:06.550Z,101628.60
2023-05-19T13:04:06.657Z,101627.00
2023-05-19T13:09:07.348Z,101627.40
2023-05-19T13:14:06.374Z,101627.80
2023-05-19T13:19:06.350Z,101624.60
2023-05-19T13:24:07.364Z,101622.60
2023-05-19T13:29:06.628Z,101625.00
2023-05-19T13:34:06.020Z,101629.80
2023-05-19T13:39:05.499Z,101625.80
2023-05-19T13:44:06.123Z,101627.00
2023-05-19T13:49:05.246Z,101626.40
2023-05-19T13:54:04.704Z,101624.20
2023-05-19T13:59:04.224Z,101627.00
2023-05-19T14:04:04.418Z,101621.00
2023-05-19T14:09:04.569Z,101618.00
2023-05-19T14:14:04.257Z,101616.60
2023-05-19T14:19:02.908Z,101617.80
2023-05-19T14:24:02.351Z,101619.40
2023-05-19T14:29:02.592Z,101624.40
2023-05-19T14:34:02.697Z,101622.20
2023-05-19T14:39:03.230Z,101628.80
2023-05-19T14:44:02.491Z,101631.40
2023-05-19T14:49:01.598Z,101629.00
2023-05-19T14:54:02.428Z,101622.40
2023-05-19T14:59:01.465Z,101619.00
2023-05-19T15:04:01.791Z,101618.00
2023-05-19T15:09:01.713Z,101623.80
2023-05-19T15:14:00.891Z,101628.40
2023-05-19T15:19:00.465Z,101638.40
2023-05-19T15:23:59.690Z,101645.20
2023-05-19T15:28:59.792Z,101645.60
2023-05-19T15:33:59.810Z,101644.40
2023-05-19T15:38:58.449Z,101632.60
2023-05-19T15:44:00.561Z,101628.80
2023-05-19T15:49:01.053Z,101623.60
2023-05-19T15:54:00.835Z,101621.20
2023-05-19T15:59:00.259Z,101621.40
2023-05-19T16:04:00.877Z,101613.80
2023-05-19T16:09:02.471Z,101606.80
2023-05-19T16:14:02.956Z,101601.00
2023-05-19T16:19:03.282Z,101602.20
2023-05-19T16:24:02.886Z,101602.60
2023-05-19T16:29:03.074Z,101602.60
2023-05-19T16:34:02.498Z,101603.40
2023-05-19T16:39:02.114Z,101602.40
2023-05-19T16:44:02.517Z,101605.00
2023-05-19T16:49:02.390Z,101602.80
2023-05-19T16:54:02.925Z,101607.80
2023-05-19T16:59:02.703Z,101615.20
2023-05-19T17:04:02.424Z,101600.60
2023-05-19T17:09:02.055Z,101596.40
2023-05-19T17:14:07.924Z,101604.80
2023-05-19T17:19:07.998Z,101596.80
2023-05-19T17:24:09.198Z,101602.80
2023-05-19T17:29:08.409Z,101605.00
2023-05-19T17:34:07.487Z,101603.60
2023-05-19T17:39:07.601Z,101606.80
2023-05-19T17:44:08.002Z,101608.60
2023-05-19T17:49:07.569Z,101604.20
2023-05-19T17:54:09.607Z,101604.00
2023-05-19T17:59:12.427Z,101608.60
2023-05-19T18:04:16.137Z,101605.20
2023-05-19T18:09:17.961Z,101607.60
2023-05-19T18:14:17.045Z,101608.00
2023-05-19T18:19:15.814Z,101603.00
2023-05-19T18:24:15.371Z,101609.40
2023-05-19T18:29:15.973Z,101611.20
2023-05-19T18:34:15.332Z,101615.80
2023-05-19T18:39:14.715Z,101619.00
2023-05-19T18:44:14.568Z,101627.60
2023-05-19T18:49:14.164Z,101634.80
2023-05-19T18:54:13.670Z,101635.80
2023-05-19T18:59:13.000Z,101641.40
2023-05-19T19:04:12.264Z,101643.00
2023-05-19T19:09:11.204Z,101648.60
2023-05-19T19:14:10.508Z,101653.80
2023-05-19T19:19:10.137Z,101652.80
2023-05-19T19:24:11.054Z,101650.60
2023-05-19T19:29:10.143Z,101648.80
2023-05-19T19:34:11.420Z,101651.40
2023-05-19T19:39:10.892Z,101658.20
2023-05-19T19:44:10.596Z,101661.20
2023-05-19T19:49:10.013Z,101664.40
2023-05-19T19:54:09.711Z,101663.60
2023-05-19T19:59:08.771Z,101666.60
2023-05-19T20:04:08.833Z,101673.60
2023-05-19T20:09:09.261Z,101675.40
2023-05-19T20:14:08.422Z,101674.20
2023-05-19T20:19:09.315Z,101668.60
2023-05-19T20:24:09.430Z,101673.80
2023-05-19T20:29:09.333Z,101670.80
2023-05-19T20:34:09.149Z,101663.80
2023-05-19T20:39:09.814Z,101670.40
2023-05-19T20:44:10.600Z,101669.60
2023-05-19T20:49:10.509Z,101664.40
2023-05-19T20:54:09.864Z,101670.00
2023-05-19T20:59:08.898Z,101668.80
2023-05-19T21:04:08.018Z,101667.40
2023-05-19T21:09:07.133Z,101667.80
2023-05-19T21:14:07.783Z,101669.20
2023-05-19T21:19:07.887Z,101677.00
2023-05-19T21:24:07.375Z,101669.60
2023-05-19T21:29:06.592Z,101666.00
2023-05-19T21:34:07.669Z,101667.20
2023-05-19T21:39:07.489Z,101668.20
2023-05-19T21:44:07.510Z,101670.80
2023-05-19T21:49:08.612Z,101670.00
2023-05-19T21:54:07.929Z,101666.40
2023-05-19T21:59:07.589Z,101663.00
2023-05-19T22:04:07.360Z,101657.80
2023-05-19T22:09:07.489Z,101668.40
2023-05-19T22:14:07.096Z,101666.40
2023-05-19T22:19:06.759Z,101666.80
2023-05-19T22:24:05.738Z,101667.40
2023-05-19T22:29:04.864Z,101663.00
2023-05-19T22:34:04.271Z,101669.40
2023-05-19T22:39:04.258Z,101666.60
2023-05-19T22:44:03.424Z,101668.80
2023-05-19T22:49:03.416Z,101662.20
2023-05-19T22:54:02.880Z,101663.40
2023-05-19T22:59:02.194Z,101668.20
2023-05-19T23:04:00.738Z,101668.60
2023-05-19T23:09:07.882Z,101671.20
2023-05-19T23:14:07.602Z,101672.20
2023-05-19T23:19:06.943Z,101668.40
2023-05-19T23:24:06.697Z,101666.00
2023-05-19T23:29:06.395Z,101659.60
2023-05-19T23:34:06.131Z,101664.80
2023-05-19T23:39:06.599Z,101662.20
2023-05-19T23:44:05.920Z,101666.40
2023-05-19T23:49:05.855Z,101656.80
2023-05-19T23:54:05.018Z,101658.60
2023-05-19T23:59:04.202Z,101659.80
